Impacts METAR Board
IDs:

KDFW - Dallas-Ft Worth Intl, TX, US

Updated at: 1200 UTC 07 Jul 2020
Potential Impact None Slight Moderate High
Time 07/00Z 07/01Z 07/02Z 07/03Z 07/04Z 07/05Z 07/06Z 07/07Z 07/08Z 07/09Z 07/10Z 07/11Z 07/12Z
Temp83 85 79 77 77 75 75 74 74 74 73 74 74
Dewpt76 75 73 73 73 73 73 72 73 72 72 72 72
Altim29.87 29.88 29.88 29.89 29.90 29.92 29.91 29.90 29.90 29.91 29.91 29.93 29.92
VIS10 10 10 10 10 10 10 10 10 10 10 10 10
CIG110 130 190 190 190 -- -- -- 140 160 -- 160 --
CoverOVCOVCOVCOVCBKNSCTSCTSCTBKNBKNSCTBKNSCT
FltCatVFRVFRVFRVFRVFRVFRVFRVFRVFRVFRVFRVFRVFR
WX--------------------------
WDir34034015001101101101101301201008090
WSpd4 3 7 0 7 5 5 4 7 7 4 5 5
WGst-- -- -- -- -- -- -- -- -- -- -- -- --
Raw hourly METARs
KDFW 062353Z 34004KT 10SM FEW045 BKN110 BKN170 OVC240 28/24 A2987 RMK AO2 LTG DSNT SE SLP104 CB DSNT SE MOV SE TCU DSNT N-E S-SW T02830244 10311 20272 55007 $
KDFW 070053Z 34003KT 10SM SCT060 BKN130 BKN200 OVC240 29/24 A2988 RMK AO2 LTG DSNT E AND SW SLP108 CB DSNT E-S MOV SE TCU DSNT N-NE T02940239 $
KDFW 070153Z 15007KT 10SM SCT050 BKN190 BKN200 OVC240 26/23 A2988 RMK AO2 LTG DSNT N SLP111 CB DSNT N-E S-SW MOV SE T02610228 $
KDFW 070253Z 00000KT 10SM SCT065 BKN190 OVC240 25/23 A2989 RMK AO2 SLP111 T02500228 51007 $
KDFW 070353Z 11007KT 10SM FEW065 SCT150 BKN190 25/23 A2990 RMK AO2 SLP116 T02500228 $
KDFW 070453Z 11005KT 10SM FEW150 SCT190 24/23 A2992 RMK AO2 SLP122 T02390228 $
KDFW 070553Z 11005KT 10SM FEW150 SCT300 24/23 A2991 RMK AO2 SLP118 T02390228 10294 20239 403110233 50006 $
KDFW 070653Z 11004KT 10SM FEW150 SCT300 23/22 A2990 RMK AO2 SLP117 T02330222 $
KDFW 070753Z 13007KT 10SM BKN140 BKN300 23/23 A2990 RMK AO2 SLP117 T02330228 $
KDFW 070853Z 12007KT 10SM FEW015 BKN160 BKN300 23/22 A2991 RMK AO2 SLP119 T02330222 53000 $
KDFW 070953Z 10004KT 10SM FEW160 SCT300 23/22 A2991 RMK AO2 SLP120 T02280222 $
KDFW 071053Z 08005KT 10SM FEW015 SCT085 BKN160 BKN300 23/22 A2993 RMK AO2 SLP127 T02330222 $
KDFW 071153Z 09005KT 10SM FEW015 FEW085 SCT160 SCT300 23/22 A2992 RMK AO2 SLP124 CB DSNT SE-SW MOV E ACC DSNT NW-NE 70006 T02330222 10239 20228 50005 $



Page loaded:  12:41 UTC  |   05:41 AM Pacific  |   06:41 AM Mountain  |   07:41 AM Central  |   08:41 AM Eastern

 

ADVISORIES

FORECASTS

FORECASTS

OBSERVATIONS

USER TOOLS

ABOUT US